DAL348 KATL-KPHX
Flight info
| Callsign | DAL348 |
|---|---|
| Flight time | N/A |
| Altitude | 30000 |
| Route | NASSA2 YAALL J14 IRW J6 PNH/N0504F320 J6 ZUN EAGUL6 |
| Aircraft | B763/H-SDE3FGHIM3RWXY/LB1 |
Departure
| Time | 2026-05-04 23:58 |
|---|---|
| Airport | Hartsfield Jackson Atlanta International Airport (KATL) |
Arrival
| Time | N/A |
|---|---|
| Airport | Phoenix Sky Harbor International Airport (KPHX) |
| Time | Latitude | Longitude | Altitude | Speed | Heading |
|---|---|---|---|---|---|
| 2026-05-04 23:31 | 33.63799 | -84.42050 | 1025 ft | 0 kts | 91° |
| 2026-05-04 23:41 | 33.63799 | -84.42062 | 1025 ft | 2 kts | 90° |
| 2026-05-04 23:42 | 33.63799 | -84.42073 | 1025 ft | 1 kts | 90° |
| 2026-05-04 23:42 | 33.63798 | -84.42091 | 1025 ft | 2 kts | 75° |
| 2026-05-04 23:42 | 33.63793 | -84.42107 | 1025 ft | 2 kts | 61° |
| 2026-05-04 23:42 | 33.63784 | -84.42122 | 1025 ft | 2 kts | 47° |
| 2026-05-04 23:43 | 33.63773 | -84.42134 | 1025 ft | 2 kts | 33° |
| 2026-05-04 23:43 | 33.63760 | -84.42142 | 1025 ft | 2 kts | 19° |
| 2026-05-04 23:43 | 33.63746 | -84.42146 | 1025 ft | 2 kts | 5° |
| 2026-05-04 23:43 | 33.63738 | -84.42146 | 1025 ft | 0 kts | 359° |
| 2026-05-04 23:45 | 33.63739 | -84.42146 | 1025 ft | 0 kts | 359° |
| 2026-05-04 23:46 | 33.63839 | -84.42156 | 1025 ft | 18 kts | 334° |
| 2026-05-04 23:46 | 33.63916 | -84.42239 | 1025 ft | 14 kts | 352° |
| 2026-05-04 23:46 | 33.64020 | -84.42239 | 1025 ft | 14 kts | 0° |
| 2026-05-04 23:46 | 33.64129 | -84.42242 | 1025 ft | 19 kts | 357° |
| 2026-05-04 23:47 | 33.64283 | -84.42242 | 1024 ft | 23 kts | 1° |
| 2026-05-04 23:47 | 33.64447 | -84.42231 | 1018 ft | 22 kts | 13° |
| 2026-05-04 23:47 | 33.64540 | -84.42091 | 1015 ft | 22 kts | 81° |
| 2026-05-04 23:47 | 33.64543 | -84.41894 | 1011 ft | 24 kts | 91° |
| 2026-05-04 23:48 | 33.64542 | -84.41692 | 1009 ft | 24 kts | 90° |
| 2026-05-04 23:48 | 33.64543 | -84.41497 | 1013 ft | 22 kts | 90° |
| 2026-05-04 23:48 | 33.64543 | -84.41316 | 1017 ft | 21 kts | 90° |
| 2026-05-04 23:48 | 33.64543 | -84.41118 | 1021 ft | 25 kts | 90° |
| 2026-05-04 23:49 | 33.64543 | -84.40904 | 1026 ft | 23 kts | 90° |
| 2026-05-04 23:49 | 33.64571 | -84.40731 | 1033 ft | 18 kts | 82° |
| 2026-05-04 23:49 | 33.64579 | -84.40599 | 1037 ft | 13 kts | 66° |
| 2026-05-04 23:49 | 33.64655 | -84.40572 | 1037 ft | 10 kts | 344° |
| 2026-05-04 23:50 | 33.64681 | -84.40633 | 1036 ft | 9 kts | 271° |
| 2026-05-04 23:50 | 33.64681 | -84.40723 | 1033 ft | 12 kts | 270° |
| 2026-05-04 23:50 | 33.64681 | -84.40735 | 1033 ft | 0 kts | 270° |
| 2026-05-04 23:50 | 33.64681 | -84.40784 | 1031 ft | 25 kts | 269° |
| 2026-05-04 23:51 | 33.64680 | -84.41216 | 1019 ft | 76 kts | 270° |
| 2026-05-04 23:51 | 33.64680 | -84.41766 | 1012 ft | 44 kts | 270° |
| 2026-05-04 23:51 | 33.64683 | -84.42109 | 1014 ft | 31 kts | 270° |
| 2026-05-04 23:51 | 33.64633 | -84.42235 | 1015 ft | 13 kts | 193° |
| 2026-05-04 23:52 | 33.64577 | -84.42237 | 1015 ft | 0 kts | 177° |
| 2026-05-04 23:55 | 33.64568 | -84.42235 | 1015 ft | 3 kts | 166° |
| 2026-05-04 23:55 | 33.64543 | -84.42201 | 1015 ft | 8 kts | 107° |
| 2026-05-04 23:55 | 33.64543 | -84.41874 | 1011 ft | 27 kts | 91° |
| 2026-05-04 23:56 | 33.64543 | -84.41607 | 1012 ft | 33 kts | 90° |
| 2026-05-04 23:56 | 33.64542 | -84.41322 | 1016 ft | 36 kts | 90° |
| 2026-05-04 23:56 | 33.64542 | -84.41017 | 1023 ft | 35 kts | 90° |
| 2026-05-04 23:56 | 33.64562 | -84.40762 | 1032 ft | 27 kts | 82° |
| 2026-05-04 23:57 | 33.64583 | -84.40590 | 1037 ft | 15 kts | 52° |
| 2026-05-04 23:57 | 33.64674 | -84.40595 | 1037 ft | 13 kts | 302° |
| 2026-05-04 23:57 | 33.64681 | -84.40787 | 1031 ft | 54 kts | 269° |
| 2026-05-04 23:57 | 33.64679 | -84.41643 | 1012 ft | 148 kts | 270° |
| 2026-05-04 23:58 | 33.64682 | -84.43142 | 1355 ft | 203 kts | 270° |
| 2026-05-04 23:58 | 33.64741 | -84.44778 | 2844 ft | 199 kts | 269° |
| 2026-05-04 23:58 | 33.64785 | -84.46349 | 3455 ft | 201 kts | 274° |
| 2026-05-04 23:58 | 33.65096 | -84.48123 | 3504 ft | 231 kts | 281° |
| 2026-05-04 23:59 | 33.65485 | -84.50159 | 3992 ft | 269 kts | 281° |
| 2026-05-04 23:59 | 33.65877 | -84.52241 | 5754 ft | 267 kts | 281° |
| 2026-05-04 23:59 | 33.66280 | -84.54406 | 7233 ft | 275 kts | 281° |
| 2026-05-04 23:59 | 33.66690 | -84.56606 | 8721 ft | 281 kts | 281° |
| 2026-05-05 00:00 | 33.67102 | -84.58861 | 10203 ft | 285 kts | 280° |
| 2026-05-05 00:00 | 33.67234 | -84.59631 | 10654 ft | 288 kts | 280° |
| 2026-05-05 00:00 | 33.67947 | -84.63850 | 11927 ft | 339 kts | 281° |
| 2026-05-05 00:00 | 33.68437 | -84.66740 | 12688 ft | 370 kts | 280° |
| 2026-05-05 00:01 | 33.68961 | -84.69827 | 13939 ft | 383 kts | 281° |
| 2026-05-05 00:01 | 33.69494 | -84.72965 | 15270 ft | 388 kts | 280° |
| 2026-05-05 00:01 | 33.69925 | -84.76125 | 16523 ft | 395 kts | 274° |
| 2026-05-05 00:01 | 33.69965 | -84.79423 | 17966 ft | 398 kts | 269° |
| 2026-05-05 00:02 | 33.69976 | -84.82722 | 19228 ft | 404 kts | 270° |
| 2026-05-05 00:02 | 33.69968 | -84.86070 | 20539 ft | 407 kts | 270° |
| 2026-05-05 00:02 | 33.69967 | -84.89455 | 21670 ft | 413 kts | 270° |
| 2026-05-05 00:02 | 33.69961 | -84.92950 | 22725 ft | 419 kts | 270° |
| 2026-05-05 00:03 | 33.69953 | -84.96453 | 23804 ft | 424 kts | 270° |
| 2026-05-05 00:03 | 33.69944 | -84.99951 | 24824 ft | 428 kts | 270° |
| 2026-05-05 00:03 | 33.69934 | -85.03532 | 25536 ft | 437 kts | 270° |
| 2026-05-05 00:03 | 33.69923 | -85.07208 | 26546 ft | 439 kts | 270° |
| 2026-05-05 00:04 | 33.69910 | -85.10858 | 27254 ft | 446 kts | 270° |
| 2026-05-05 00:04 | 33.69896 | -85.14588 | 28018 ft | 450 kts | 270° |
| 2026-05-05 00:04 | 33.69879 | -85.18364 | 28723 ft | 455 kts | 270° |
| 2026-05-05 00:04 | 33.69863 | -85.22107 | 29644 ft | 452 kts | 270° |
| 2026-05-05 00:05 | 33.69828 | -85.25838 | 30048 ft | 445 kts | 270° |
| 2026-05-05 00:05 | 33.69746 | -85.33301 | 30033 ft | 454 kts | 270° |
| 2026-05-05 00:06 | 33.69660 | -85.40825 | 30018 ft | 447 kts | 270° |
| 2026-05-05 00:06 | 33.69571 | -85.48231 | 30014 ft | 445 kts | 270° |
| 2026-05-05 00:07 | 33.69476 | -85.55698 | 30017 ft | 447 kts | 270° |
| 2026-05-05 00:07 | 33.69378 | -85.63153 | 30007 ft | 446 kts | 270° |
| 2026-05-05 00:08 | 33.69276 | -85.70522 | 30004 ft | 446 kts | 270° |
| 2026-05-05 00:08 | 33.69169 | -85.77988 | 29999 ft | 447 kts | 270° |
| 2026-05-05 00:09 | 33.69056 | -85.85429 | 29996 ft | 446 kts | 270° |
| 2026-05-05 00:09 | 33.68941 | -85.92808 | 29991 ft | 444 kts | 270° |
| 2026-05-05 00:10 | 33.68822 | -86.00201 | 29981 ft | 444 kts | 270° |
| 2026-05-05 00:10 | 33.69054 | -86.07578 | 29989 ft | 443 kts | 276° |
| 2026-05-05 00:11 | 33.69617 | -86.14959 | 29986 ft | 443 kts | 276° |
| 2026-05-05 00:11 | 33.70181 | -86.22288 | 29976 ft | 442 kts | 276° |
| 2026-05-05 00:12 | 33.70743 | -86.29559 | 29983 ft | 440 kts | 276° |
| 2026-05-05 00:12 | 33.71306 | -86.36876 | 29989 ft | 441 kts | 276° |
| 2026-05-05 00:13 | 33.71864 | -86.44175 | 29970 ft | 438 kts | 276° |
| 2026-05-05 00:13 | 33.72416 | -86.51444 | 29978 ft | 440 kts | 276° |
| 2026-05-05 00:14 | 33.72965 | -86.58734 | 29964 ft | 439 kts | 277° |
| 2026-05-05 00:14 | 33.73507 | -86.65987 | 29971 ft | 438 kts | 277° |
| 2026-05-05 00:15 | 33.74047 | -86.73264 | 29975 ft | 437 kts | 276° |
| 2026-05-05 00:15 | 33.74578 | -86.80481 | 29983 ft | 437 kts | 276° |
| 2026-05-05 00:16 | 33.75109 | -86.87763 | 29969 ft | 437 kts | 277° |
| 2026-05-05 00:16 | 33.75633 | -86.94987 | 29977 ft | 436 kts | 277° |
| 2026-05-05 00:17 | 33.76153 | -87.02244 | 29966 ft | 437 kts | 277° |
| 2026-05-05 00:17 | 33.76672 | -87.09534 | 29953 ft | 437 kts | 277° |
| 2026-05-05 00:18 | 33.77179 | -87.16721 | 29967 ft | 431 kts | 277° |
| 2026-05-05 00:18 | 33.77683 | -87.23927 | 29945 ft | 433 kts | 277° |
| 2026-05-05 00:19 | 33.78179 | -87.31076 | 29942 ft | 429 kts | 278° |
| 2026-05-05 00:19 | 33.78667 | -87.38163 | 29966 ft | 428 kts | 277° |
| 2026-05-05 00:20 | 33.79153 | -87.45285 | 29956 ft | 428 kts | 277° |
| 2026-05-05 00:20 | 33.80255 | -87.52215 | 29954 ft | 424 kts | 286° |
| 2026-05-05 00:21 | 33.81652 | -87.59046 | 29955 ft | 423 kts | 286° |
| 2026-05-05 00:21 | 33.83070 | -87.65911 | 29950 ft | 423 kts | 285° |
| 2026-05-05 00:22 | 33.84475 | -87.72699 | 29968 ft | 420 kts | 286° |
| 2026-05-05 00:22 | 33.85886 | -87.79523 | 29941 ft | 420 kts | 286° |
| 2026-05-05 00:23 | 33.87281 | -87.86298 | 29954 ft | 417 kts | 286° |
| 2026-05-05 00:23 | 33.88668 | -87.93047 | 29956 ft | 417 kts | 287° |
| 2026-05-05 00:24 | 33.90048 | -87.99781 | 29948 ft | 416 kts | 287° |
| 2026-05-05 00:24 | 33.91433 | -88.06555 | 29947 ft | 415 kts | 287° |
| 2026-05-05 00:25 | 33.92803 | -88.13274 | 29931 ft | 417 kts | 286° |
| 2026-05-05 00:25 | 33.94170 | -88.20005 | 29936 ft | 413 kts | 286° |
| 2026-05-05 00:26 | 33.95528 | -88.26713 | 29943 ft | 414 kts | 287° |